createdAt,value
2019-04-23T00:04:04.639Z,5.57
2019-04-23T00:09:10.989Z,4.87
2019-04-23T00:11:34.172Z,9.90
2019-04-23T00:14:05.585Z,7.47
2019-04-23T00:16:47.314Z,11.43
2019-04-23T00:19:11.789Z,6.87
2019-04-23T00:22:15.054Z,5.87
2019-04-23T00:25:12.156Z,7.60
2019-04-23T00:29:56.577Z,10.80
2019-04-23T00:32:28.614Z,7.37
2019-04-23T00:34:56.683Z,8.17
2019-04-23T00:37:31.540Z,6.57
2019-04-23T00:42:29.676Z,11.07
2019-04-23T00:44:57.443Z,11.00
2019-04-23T00:47:46.585Z,11.80
2019-04-23T00:50:15.951Z,8.23
2019-04-23T00:52:37.147Z,5.93
2019-04-23T00:55:10.718Z,7.20
2019-04-23T00:57:46.077Z,8.80
2019-04-23T01:02:49.214Z,7.73
2019-04-23T01:07:45.820Z,6.70
2019-04-23T01:10:19.979Z,6.57
2019-04-23T01:15:32.618Z,6.97
2019-04-23T01:18:02.273Z,5.90
2019-04-23T01:20:44.550Z,7.47
2019-04-23T01:22:52.854Z,8.50
2019-04-23T01:25:40.591Z,14.67
2019-04-23T01:28:34.001Z,10.27
2019-04-23T01:31:02.563Z,8.33
2019-04-23T01:36:16.459Z,10.17
2019-04-23T01:38:40.545Z,7.73
2019-04-23T01:41:07.753Z,7.67
2019-04-23T01:46:07.972Z,11.30
2019-04-23T01:48:48.228Z,8.03
2019-04-23T01:51:08.191Z,6.53
2019-04-23T01:53:45.595Z,7.20
2019-04-23T01:56:20.066Z,6.20
2019-04-23T02:01:16.053Z,8.33
2019-04-23T02:03:54.371Z,5.80
2019-04-23T02:06:19.874Z,6.43
2019-04-23T02:11:25.657Z,6.73
2019-04-23T02:13:56.779Z,6.97
2019-04-23T02:16:34.005Z,6.53
2019-04-23T02:19:02.826Z,10.43
2019-04-23T02:21:36.664Z,8.40
2019-04-23T02:24:03.708Z,6.17
2019-04-23T02:26:36.967Z,11.83
2019-04-23T02:29:29.954Z,6.93
2019-04-23T02:34:31.260Z,6.00
2019-04-23T02:36:57.267Z,8.30
2019-04-23T02:49:36.184Z,8.00
2019-04-23T02:54:46.508Z,8.13
2019-04-23T03:00:11.639Z,6.03
2019-04-23T03:04:49.958Z,6.87
2019-04-23T03:07:33.233Z,5.33
2019-04-23T03:09:51.287Z,10.83
2019-04-23T03:15:29.221Z,10.13
2019-04-23T03:18:16.145Z,8.27
2019-04-23T03:25:56.834Z,7.90
2019-04-23T03:28:35.830Z,5.27
2019-04-23T03:38:45.707Z,9.13
2019-04-23T03:41:15.056Z,8.93
2019-04-23T03:46:26.201Z,8.00
2019-04-23T03:48:47.689Z,9.07
2019-04-23T03:51:24.155Z,6.57
2019-04-23T03:53:54.276Z,7.53
2019-04-23T03:56:22.480Z,9.50
2019-04-23T03:58:47.475Z,9.20
2019-04-23T04:06:37.428Z,6.50
2019-04-23T04:09:13.166Z,7.57
2019-04-23T04:11:22.968Z,6.60
2019-04-23T04:14:11.739Z,6.23
2019-04-23T04:16:36.547Z,12.70
2019-04-23T04:19:08.612Z,6.40
2019-04-23T04:21:45.899Z,8.10
2019-04-23T04:26:43.943Z,10.03
2019-04-23T04:29:19.082Z,7.13
2019-04-23T04:37:11.731Z,8.13
2019-04-23T04:39:15.389Z,14.50
2019-04-23T04:42:09.333Z,8.57
2019-04-23T04:46:50.150Z,7.40
2019-04-23T04:49:39.069Z,7.57
2019-04-23T04:54:23.133Z,7.67
2019-04-23T04:59:39.833Z,8.37
2019-04-23T05:02:09.428Z,6.93
2019-04-23T05:04:38.132Z,16.50
2019-04-23T05:09:59.373Z,6.67
2019-04-23T05:12:24.156Z,6.47
2019-04-23T05:17:28.100Z,13.43
2019-04-23T05:19:51.198Z,6.17
2019-04-23T05:22:22.631Z,6.50
2019-04-23T05:24:51.056Z,8.10
2019-04-23T05:27:17.547Z,9.53
2019-04-23T05:30:02.529Z,6.77
2019-04-23T05:32:27.348Z,8.10
2019-04-23T05:34:55.473Z,8.80
2019-04-23T05:37:39.438Z,13.67
2019-04-23T05:40:09.873Z,8.63
2019-04-23T05:42:31.960Z,8.17
2019-04-23T05:45:00.868Z,8.17
2019-04-23T05:47:35.671Z,8.53
2019-04-23T05:50:12.712Z,4.93
2019-04-23T05:55:08.809Z,7.50
2019-04-23T05:57:39.128Z,9.37
2019-04-23T06:00:18.997Z,9.97
2019-04-23T06:02:50.220Z,12.27
2019-04-23T06:05:19.721Z,13.60
2019-04-23T06:07:47.234Z,7.73
2019-04-23T06:10:19.801Z,9.33
2019-04-23T06:12:50.928Z,7.57
2019-04-23T06:15:26.770Z,8.67
2019-04-23T06:18:01.743Z,13.30
2019-04-23T06:20:38.483Z,6.83
2019-04-23T06:23:13.396Z,9.70
2019-04-23T06:28:09.421Z,6.30
2019-04-23T06:30:47.289Z,11.03
2019-04-23T06:33:16.085Z,10.33
2019-04-23T06:35:47.352Z,10.70
2019-04-23T06:38:39.520Z,13.13
2019-04-23T06:41:05.831Z,9.07
2019-04-23T06:43:22.717Z,10.40
2019-04-23T06:45:49.437Z,8.50
2019-04-23T06:48:28.756Z,9.20
2019-04-23T06:51:02.408Z,7.47
2019-04-23T06:53:27.203Z,7.60
2019-04-23T06:58:33.932Z,11.87
2019-04-23T07:01:03.429Z,8.57
2019-04-23T07:03:38.252Z,10.20
2019-04-23T07:06:17.280Z,8.70
2019-04-23T07:09:03.192Z,9.83
2019-04-23T07:11:28.753Z,7.50
2019-04-23T07:21:20.284Z,10.53
2019-04-23T07:24:00.731Z,7.33
2019-04-23T07:26:30.434Z,7.77
2019-04-23T07:33:57.628Z,11.03
2019-04-23T07:36:32.668Z,7.43
2019-04-23T07:39:20.575Z,14.57
2019-04-23T07:48:01.872Z,14.57
2019-04-23T07:53:11.476Z,8.33
2019-04-23T07:55:34.422Z,9.17
2019-04-23T07:58:10.602Z,10.63
2019-04-23T08:00:41.765Z,13.00
2019-04-23T08:03:10.994Z,11.20
2019-04-23T08:05:49.623Z,10.37
2019-04-23T08:08:07.225Z,11.67
2019-04-23T08:10:46.613Z,9.67
2019-04-23T08:13:16.398Z,11.67
2019-04-23T08:18:26.312Z,11.33
2019-04-23T08:20:51.798Z,9.60
2019-04-23T08:23:43.926Z,5.93
2019-04-23T08:26:42.136Z,11.70
2019-04-23T08:29:12.313Z,9.90
2019-04-23T08:31:43.694Z,9.57
2019-04-23T08:34:25.578Z,5.67
2019-04-23T08:36:48.255Z,9.20
2019-04-23T08:39:18.160Z,8.93
2019-04-23T08:41:57.663Z,13.07
2019-04-23T08:44:54.782Z,10.20
2019-04-23T08:47:10.361Z,4.67
2019-04-23T08:49:50.540Z,5.77
2019-04-23T08:52:13.022Z,7.60
2019-04-23T08:57:19.299Z,10.73
2019-04-23T09:04:54.222Z,10.17
2019-04-23T09:09:58.485Z,7.70
2019-04-23T09:12:32.012Z,12.60
2019-04-23T09:14:54.727Z,10.90
2019-04-23T09:17:37.559Z,9.23
2019-04-23T09:22:34.721Z,7.50
2019-04-23T09:25:02.737Z,4.30
2019-04-23T09:27:36.151Z,10.60
2019-04-23T09:30:07.630Z,9.20
2019-04-23T09:32:38.508Z,10.23
2019-04-23T09:35:25.955Z,5.47
2019-04-23T09:38:11.512Z,6.70
2019-04-23T09:41:37.918Z,10.70
2019-04-23T09:43:47.262Z,7.30
2019-04-23T09:46:25.815Z,6.50
2019-04-23T09:48:59.749Z,7.57
2019-04-23T09:51:32.827Z,6.47
2019-04-23T09:54:04.445Z,7.97
2019-04-23T09:56:37.783Z,10.63
2019-04-23T09:59:08.963Z,5.13
2019-04-23T10:01:29.022Z,5.77
2019-04-23T10:03:50.948Z,8.80
2019-04-23T10:06:16.792Z,8.97
2019-04-23T10:08:47.505Z,6.63
2019-04-23T10:11:13.764Z,3.57
2019-04-23T10:13:45.080Z,6.83
2019-04-23T10:16:19.470Z,3.97
2019-04-23T10:18:49.126Z,6.93
2019-04-23T10:21:19.558Z,2.83
2019-04-23T10:23:49.620Z,2.47
2019-04-23T10:26:19.823Z,6.63
2019-04-23T10:28:52.110Z,4.67
2019-04-23T10:31:23.019Z,2.33
2019-04-23T10:33:52.998Z,6.20
2019-04-23T10:36:25.868Z,4.07
2019-04-23T10:39:00.471Z,2.20
2019-04-23T10:41:27.723Z,4.33
2019-04-23T10:44:19.268Z,3.40
2019-04-23T10:47:23.804Z,7.30
2019-04-23T10:50:17.295Z,3.40
2019-04-23T10:52:33.738Z,3.80
2019-04-23T10:55:06.253Z,2.93
2019-04-23T10:57:31.085Z,4.03
2019-04-23T11:00:09.448Z,5.27
2019-04-23T11:05:35.579Z,7.30
2019-04-23T11:07:53.583Z,6.73
2019-04-23T11:10:17.432Z,6.17
2019-04-23T11:13:10.730Z,2.93
2019-04-23T11:15:32.361Z,2.53
2019-04-23T11:20:35.403Z,2.50
2019-04-23T11:25:44.356Z,3.80
2019-04-23T11:28:13.532Z,6.33
2019-04-23T11:33:16.267Z,3.63
2019-04-23T11:35:52.292Z,5.20
2019-04-23T11:38:35.520Z,2.57
2019-04-23T11:40:36.994Z,6.83
2019-04-23T11:51:26.276Z,3.80
2019-04-23T11:53:29.690Z,8.27
2019-04-23T11:55:58.977Z,3.87
2019-04-23T12:01:38.686Z,3.27
2019-04-23T12:04:14.067Z,6.93
2019-04-23T12:06:41.768Z,3.73
2019-04-23T12:14:46.893Z,3.90
2019-04-23T12:17:35.393Z,7.03
2019-04-23T12:25:11.283Z,2.90
2019-04-23T12:27:30.328Z,3.60
2019-04-23T12:30:03.582Z,7.30
2019-04-23T12:35:16.201Z,1.33
2019-04-23T12:37:53.858Z,5.07
2019-04-23T12:43:13.358Z,7.93
2019-04-23T12:45:31.752Z,3.00
2019-04-23T12:58:03.479Z,2.47
2019-04-23T13:01:08.167Z,3.60
2019-04-23T13:03:01.962Z,3.20
2019-04-23T13:08:08.003Z,0.93
2019-04-23T13:10:42.356Z,4.53
2019-04-23T13:13:19.178Z,3.27
2019-04-23T13:15:45.623Z,3.37
2019-04-23T13:30:59.060Z,2.53
2019-04-23T13:33:39.077Z,2.47
2019-04-23T13:36:13.946Z,7.07
2019-04-23T13:38:37.492Z,5.73
2019-04-23T13:48:36.668Z,1.30
2019-04-23T13:53:46.647Z,2.10
2019-04-23T13:58:51.819Z,1.37
2019-04-23T14:01:25.390Z,1.63
2019-04-23T14:04:01.389Z,0.90
2019-04-23T14:06:29.449Z,1.67
2019-04-23T14:11:27.608Z,2.10
2019-04-23T14:14:10.198Z,1.10
2019-04-23T14:16:44.656Z,3.00
2019-04-23T14:19:04.665Z,1.57
2019-04-23T14:21:51.825Z,3.23
2019-04-23T14:24:19.872Z,3.57
2019-04-23T14:26:58.238Z,1.43
2019-04-23T14:29:15.004Z,4.60
2019-04-23T14:31:35.947Z,3.57
2019-04-23T14:36:52.092Z,5.03
2019-04-23T14:39:35.182Z,3.67
2019-04-23T14:41:53.026Z,2.27
2019-04-23T14:44:36.543Z,3.50
2019-04-23T14:47:22.174Z,1.10
2019-04-23T14:49:59.366Z,2.47
2019-04-23T14:52:21.358Z,2.27
2019-04-23T14:55:38.024Z,10.23
2019-04-23T14:57:34.093Z,4.30
2019-04-23T15:00:03.723Z,5.23
2019-04-23T15:05:08.977Z,3.90
2019-04-23T15:10:08.905Z,2.23
2019-04-23T15:15:22.475Z,2.33
2019-04-23T15:20:25.315Z,4.43
2019-04-23T15:25:53.170Z,2.40
2019-04-23T15:30:24.781Z,3.77
2019-04-23T15:38:20.426Z,2.30
2019-04-23T15:43:17.297Z,2.63
2019-04-23T15:45:40.202Z,4.53
2019-04-23T15:48:11.996Z,3.40
2019-04-23T15:50:36.567Z,9.50
2019-04-23T15:53:04.722Z,5.00
2019-04-23T15:55:49.318Z,4.00
2019-04-23T15:58:14.288Z,0.93
2019-04-23T16:00:55.886Z,2.10
2019-04-23T16:02:51.419Z,5.87
2019-04-23T16:05:21.653Z,1.20
2019-04-23T16:08:16.480Z,2.17
2019-04-23T16:10:54.864Z,3.33
2019-04-23T16:13:30.948Z,4.07
2019-04-23T16:16:03.384Z,1.90
2019-04-23T16:18:41.886Z,6.67
2019-04-23T16:21:29.284Z,1.37
2019-04-23T16:23:42.281Z,2.90
2019-04-23T16:26:14.464Z,2.57
2019-04-23T16:29:07.407Z,2.93
2019-04-23T16:31:20.764Z,0.87
2019-04-23T16:34:14.164Z,1.13
2019-04-23T16:36:32.505Z,2.97
2019-04-23T16:39:09.105Z,2.00
2019-04-23T16:41:39.910Z,8.03
2019-04-23T16:44:12.236Z,3.00
2019-04-23T16:46:40.669Z,2.20
2019-04-23T16:49:13.044Z,4.07
2019-04-23T16:51:57.438Z,3.20
2019-04-23T16:54:22.048Z,4.67
2019-04-23T16:57:00.483Z,3.70
2019-04-23T17:01:52.352Z,1.93
2019-04-23T17:06:52.313Z,4.73
2019-04-23T17:09:36.791Z,3.87
2019-04-23T17:11:59.551Z,3.87
2019-04-23T17:16:47.389Z,1.17
2019-04-23T17:19:29.382Z,3.43
2019-04-23T17:22:01.185Z,3.63
2019-04-23T17:24:29.975Z,4.73
2019-04-23T17:27:08.441Z,3.47
2019-04-23T17:29:37.411Z,5.93
2019-04-23T17:32:08.947Z,1.97
2019-04-23T17:34:48.156Z,5.47
2019-04-23T17:37:27.551Z,2.30
2019-04-23T17:40:09.737Z,5.57
2019-04-23T17:42:45.454Z,5.60
2019-04-23T17:50:56.609Z,3.20
2019-04-23T17:53:25.463Z,2.70
2019-04-23T17:56:08.340Z,4.67
2019-04-23T17:58:30.097Z,3.70
2019-04-23T18:01:19.329Z,4.47
2019-04-23T18:06:20.919Z,3.53
2019-04-23T18:08:43.555Z,2.63
2019-04-23T18:16:27.630Z,1.97
2019-04-23T18:21:39.723Z,2.33
2019-04-23T18:33:00.548Z,3.50
2019-04-23T18:37:44.280Z,3.83
2019-04-23T18:40:13.550Z,3.10
2019-04-23T18:45:32.032Z,2.13
2019-04-23T18:47:55.505Z,2.47
2019-04-23T18:50:43.142Z,4.00
2019-04-23T18:53:02.709Z,2.80
2019-04-23T18:55:54.374Z,4.87
2019-04-23T18:58:06.047Z,5.30
2019-04-23T19:00:49.654Z,6.27
2019-04-23T19:03:22.689Z,3.60
2019-04-23T19:06:10.640Z,2.40
2019-04-23T19:08:54.056Z,4.77
2019-04-23T19:11:35.649Z,8.23
2019-04-23T19:13:50.521Z,2.43
2019-04-23T19:16:25.159Z,9.23
2019-04-23T19:18:58.092Z,6.10
2019-04-23T19:21:45.716Z,3.47
2019-04-23T19:23:54.699Z,3.10
2019-04-23T19:27:01.074Z,3.17
2019-04-23T19:29:00.519Z,4.23
2019-04-23T19:39:29.473Z,5.00
2019-04-23T19:42:03.625Z,3.10
2019-04-23T19:44:38.726Z,6.67
2019-04-23T19:49:36.604Z,3.73
2019-04-23T19:52:03.652Z,6.30
2019-04-23T19:57:17.833Z,3.37
2019-04-23T19:59:55.960Z,7.07
2019-04-23T20:02:17.305Z,6.80
2019-04-23T20:07:20.114Z,4.47
2019-04-23T20:09:51.749Z,4.33
2019-04-23T20:12:25.363Z,4.57
2019-04-23T20:14:52.126Z,4.87
2019-04-23T20:22:36.248Z,4.97
2019-04-23T20:25:10.196Z,2.60
2019-04-23T20:27:27.980Z,6.57
2019-04-23T20:32:16.802Z,4.53
2019-04-23T20:36:05.558Z,5.40
2019-04-23T20:38:48.368Z,4.90
2019-04-23T20:41:11.839Z,2.60
2019-04-23T20:43:46.636Z,2.80
2019-04-23T20:46:06.289Z,3.20
2019-04-23T20:48:46.229Z,3.17
2019-04-23T20:51:04.875Z,3.67
2019-04-23T20:53:40.048Z,7.23
2019-04-23T20:59:00.298Z,6.53
2019-04-23T21:01:55.592Z,7.97
2019-04-23T21:04:17.776Z,2.93
2019-04-23T21:09:29.273Z,3.73
2019-04-23T21:12:00.740Z,3.57
2019-04-23T21:14:39.842Z,3.70
2019-04-23T21:17:15.313Z,3.67
2019-04-23T21:19:30.323Z,5.43
2019-04-23T21:22:09.949Z,5.80
2019-04-23T21:24:42.836Z,4.97
2019-04-23T21:27:23.673Z,5.27
2019-04-23T21:29:58.699Z,6.43
2019-04-23T21:32:28.907Z,3.77
2019-04-23T21:40:59.195Z,3.97
2019-04-23T21:43:47.368Z,2.90
2019-04-23T21:48:53.320Z,3.23
2019-04-23T21:51:22.850Z,5.00
2019-04-23T21:53:40.309Z,2.00
2019-04-23T21:58:54.876Z,3.60
2019-04-23T22:06:22.193Z,4.13
2019-04-23T22:08:54.029Z,1.60
2019-04-23T22:11:42.859Z,2.80
2019-04-23T22:19:12.684Z,3.73
2019-04-23T22:21:32.972Z,3.73
2019-04-23T22:24:02.509Z,1.83
2019-04-23T22:29:18.494Z,2.60
2019-04-23T22:31:44.315Z,2.50
2019-04-23T22:34:13.822Z,2.30
2019-04-23T22:36:44.491Z,1.40
2019-04-23T22:39:11.618Z,3.20
2019-04-23T22:41:41.669Z,4.57
2019-04-23T22:44:12.118Z,1.70
2019-04-23T22:46:52.458Z,2.13
2019-04-23T22:51:55.160Z,1.20
2019-04-23T22:54:15.389Z,2.03
2019-04-23T22:56:56.637Z,4.10
2019-04-23T23:02:15.824Z,1.87
2019-04-23T23:05:02.392Z,1.30
2019-04-23T23:07:22.385Z,1.30
2019-04-23T23:12:22.982Z,0.67
2019-04-23T23:15:05.239Z,2.30
2019-04-23T23:17:32.327Z,1.63
2019-04-23T23:20:11.690Z,1.43
2019-04-23T23:22:27.296Z,0.80
2019-04-23T23:25:11.465Z,1.20
2019-04-23T23:27:40.471Z,0.43
2019-04-23T23:30:23.389Z,0.70
2019-04-23T23:32:41.132Z,0.63
2019-04-23T23:37:48.241Z,0.87
2019-04-23T23:40:30.284Z,0.47
2019-04-23T23:42:58.005Z,1.47
2019-04-23T23:47:51.910Z,0.50
2019-04-23T23:50:25.460Z,0.70
2019-04-23T23:52:53.709Z,1.93
2019-04-23T23:55:18.487Z,1.43
2019-04-23T23:57:58.060Z,1.70
